7°C Temp
5°C Dewpoint
87% Humidity
Temperature
16 KM/H
10 MPH
9 KTS
300°
West North
West

Wind Speed
Mostly Cloudy
Conditions
Pressure 1012.87 (hPa) - 29.91 (in)
Visibility 6.0 (mi) - 9.7 (km)

Current Conditions
LIPR
Location 4(km)
Metar :LIPR 202320Z AUTO 30009KT 9999 BKN140/// 07/05 Q1013
Sun 21st April 01:20 am

Airport
  Metar Aviation API Data Provided by https://www.checkwx.com/ PHP scripts by weather34.com ©2024